Time;durP1;ratioP1;P1;durP2;ratioP2;P2;SDS_P1;SDS_P2;PMS_P1;PMS_P2;Temp;Humidity;BMP_temperature;BMP_pressure;BME280_temperature;BME280_humidity;BME280_pressure;Samples;Min_cycle;Max_cycle;Signal;HPM_P1;HPM_P2
2021/08/12 00:02:23;;;;;;;13.30;10.48;;;17.20;76.80;;;;;;5038635;28;21125;-75
2021/08/12 00:04:49;;;;;;;12.60;10.50;;;17.20;75.50;;;;;;5044969;28;20769;-75
2021/08/12 00:07:15;;;;;;;19.60;11.35;;;17.20;76.10;;;;;;5035796;28;20920;-75
2021/08/12 00:09:41;;;;;;;15.18;10.65;;;17.10;76.30;;;;;;5051397;28;20405;-76
2021/08/12 00:12:07;;;;;;;16.10;10.95;;;17.00;78.70;;;;;;5049966;28;20484;-75
2021/08/12 00:14:33;;;;;;;14.00;10.60;;;16.80;80.80;;;;;;5051585;28;20404;-76
2021/08/12 00:16:58;;;;;;;13.40;11.00;;;16.60;83.90;;;;;;5050985;28;20417;-76
2021/08/12 00:19:24;;;;;;;14.83;11.10;;;16.60;84.80;;;;;;5051267;28;20755;-75
2021/08/12 00:21:49;;;;;;;13.00;11.00;;;16.50;86.40;;;;;;5049527;28;20500;-75
2021/08/12 00:24:15;;;;;;;16.50;11.15;;;16.50;87.60;;;;;;5051977;28;20389;-76
2021/08/12 00:26:41;;;;;;;15.80;12.05;;;16.40;88.50;;;;;;5050234;28;20404;-77
2021/08/12 00:29:08;;;;;;;15.07;11.13;;;16.40;89.10;;;;;;5048260;28;20777;-77
2021/08/12 00:31:34;;;;;;;15.02;11.73;;;16.30;90.20;;;;;;5050784;28;20488;-76
2021/08/12 00:33:59;;;;;;;14.65;11.68;;;16.20;90.80;;;;;;5036981;28;20413;-75
2021/08/12 00:36:25;;;;;;;14.98;11.70;;;16.20;92.30;;;;;;5031926;28;20537;-76
2021/08/12 00:38:56;;;;;;;15.45;11.63;;;16.30;91.70;;;;;;5043182;28;20405;-77
2021/08/12 00:41:21;;;;;;;16.33;11.45;;;16.20;92.40;;;;;;5056855;28;20429;-76
2021/08/12 00:43:47;;;;;;;18.10;11.15;;;16.20;93.20;;;;;;5055781;28;20424;-76
2021/08/12 00:46:13;;;;;;;16.40;11.30;;;16.20;93.80;;;;;;5049256;28;20409;-76
2021/08/12 00:48:39;;;;;;;14.88;10.82;;;16.30;91.20;;;;;;5050529;28;20385;-76
2021/08/12 00:51:04;;;;;;;14.07;10.30;;;16.30;91.50;;;;;;5051106;28;20380;-76
2021/08/12 00:53:30;;;;;;;13.63;10.37;;;16.10;91.90;;;;;;5050404;28;20405;-76
2021/08/12 00:55:55;;;;;;;14.80;10.90;;;16.20;92.60;;;;;;5048511;28;20401;-77
2021/08/12 00:58:21;;;;;;;14.40;10.73;;;16.30;90.70;;;;;;5030868;28;20556;-75
2021/08/12 01:00:49;;;;;;;14.77;11.20;;;16.40;90.00;;;;;;5052944;28;20806;-74
2021/08/12 01:03:16;;;;;;;12.60;10.60;;;16.50;88.10;;;;;;5036373;28;20417;-76
2021/08/12 01:06:03;;;;;;;14.45;10.55;;;16.40;87.20;;;;;;5050934;28;20405;-76
2021/08/12 01:08:35;;;;;;;15.75;11.02;;;16.30;88.70;;;;;;5049882;28;20411;-76
2021/08/12 01:11:31;;;;;;;15.05;11.20;;;16.20;89.00;;;;;;5050954;28;20384;-75
2021/08/12 01:14:06;;;;;;;15.73;11.23;;;16.10;90.00;;;;;;5050974;28;20381;-76
2021/08/12 01:16:42;;;;;;;15.23;10.98;;;16.10;91.40;;;;;;5049857;28;20471;-76
2021/08/12 01:19:31;;;;;;;12.65;10.13;;;16.20;90.10;;;;;;5050633;28;20397;-76
2021/08/12 01:21:58;;;;;;;13.68;10.90;;;16.10;88.50;;;;;;5049149;28;20437;-76
2021/08/12 01:24:27;;;;;;;14.38;11.30;;;16.00;89.80;;;;;;5054712;28;20377;-76
2021/08/12 01:26:57;;;;;;;12.88;10.68;;;16.00;91.30;;;;;;5056601;28;20405;-77
2021/08/12 01:29:34;;;;;;;16.48;11.35;;;16.00;92.50;;;;;;5053396;28;20407;-75
2021/08/12 01:32:07;;;;;;;21.65;11.13;;;16.00;93.90;;;;;;5055613;28;20415;-77
2021/08/12 01:34:42;;;;;;;15.43;11.20;;;15.90;93.70;;;;;;5056623;28;20401;-76
2021/08/12 01:37:11;;;;;;;13.10;10.45;;;15.90;94.30;;;;;;5057004;28;20407;-76
2021/08/12 01:39:38;;;;;;;15.00;10.82;;;16.00;95.30;;;;;;5057297;28;20460;-76
2021/08/12 01:42:05;;;;;;;14.38;11.00;;;16.10;92.40;;;;;;5055235;28;20416;-75
2021/08/12 01:44:32;;;;;;;12.27;10.25;;;16.10;91.80;;;;;;5058453;28;20408;-74
2021/08/12 01:46:59;;;;;;;12.27;10.35;;;16.10;90.80;;;;;;5057611;28;20401;-77
2021/08/12 01:49:26;;;;;;;12.65;10.10;;;16.00;90.90;;;;;;5043423;28;20377;-76
2021/08/12 01:51:52;;;;;;;14.55;10.70;;;15.90;91.90;;;;;;5037618;28;20554;-75
2021/08/12 01:54:20;;;;;;;14.35;10.68;;;15.80;92.60;;;;;;5055395;28;20405;-74
2021/08/12 01:56:45;;;;;;;17.27;11.07;;;15.80;93.50;;;;;;5056612;28;20428;-73
2021/08/12 01:59:12;;;;;;;13.60;10.70;;;15.80;94.00;;;;;;5055357;28;20412;-77
2021/08/12 02:01:38;;;;;;;13.32;9.90;;;15.80;93.60;;;;;;5058039;28;20413;-76
2021/08/12 02:04:04;;;;;;;12.47;10.30;;;15.70;93.20;;;;;;5038364;28;20404;-77
2021/08/12 02:06:35;;;;;;;13.77;10.60;;;15.70;93.20;;;;;;5055552;28;20877;-75
2021/08/12 02:09:02;;;;;;;16.77;11.50;;;15.70;94.20;;;;;;5070993;22;20436;-70
2021/08/12 02:11:27;;;;;;;15.88;11.30;;;15.70;94.30;;;;;;5055848;28;20755;-71
2021/08/12 02:13:53;;;;;;;18.93;12.30;;;15.70;94.60;;;;;;5055832;28;20408;-71
2021/08/12 02:16:18;;;;;;;18.47;11.57;;;15.70;95.00;;;;;;5055958;28;20508;-71
2021/08/12 02:18:44;;;;;;;19.90;12.23;;;15.70;94.90;;;;;;5056515;28;20418;-74
2021/08/12 02:21:17;;;;;;;15.07;11.15;;;15.70;95.60;;;;;;5055909;28;20725;-71
2021/08/12 02:24:13;;;;;;;19.60;12.00;;;15.90;95.80;;;;;;5055850;28;20967;-72
2021/08/12 02:26:50;;;;;;;15.37;11.93;;;15.90;95.60;;;;;;5025219;28;20409;-72
2021/08/12 02:29:16;;;;;;;17.42;11.95;;;15.90;94.50;;;;;;5055362;28;20419;-72
2021/08/12 02:31:45;;;;;;;15.80;11.30;;;15.80;94.30;;;;;;5055595;28;20397;-73
2021/08/12 02:34:14;;;;;;;16.03;11.90;;;15.80;94.70;;;;;;5055454;28;20488;-72
2021/08/12 02:36:42;;;;;;;17.55;11.75;;;15.90;94.60;;;;;;5052319;28;20881;-72
2021/08/12 02:39:09;;;;;;;17.88;12.10;;;15.90;93.80;;;;;;5053132;28;20409;-72
2021/08/12 02:41:35;;;;;;;17.63;12.13;;;15.80;94.10;;;;;;5052522;28;20412;-72
2021/08/12 02:44:02;;;;;;;16.75;12.50;;;15.90;94.80;;;;;;5052472;28;20401;-71
2021/08/12 02:46:29;;;;;;;15.95;12.48;;;15.80;95.30;;;;;;5052210;28;20413;-71
2021/08/12 02:48:56;;;;;;;20.13;12.48;;;15.90;96.20;;;;;;5053073;28;20742;-72
2021/08/12 02:51:24;;;;;;;16.70;12.20;;;15.90;95.80;;;;;;5035137;28;20401;-71
2021/08/12 02:53:50;;;;;;;19.70;13.27;;;15.90;95.80;;;;;;5052781;28;20770;-71
2021/08/12 02:56:16;;;;;;;20.73;14.32;;;15.90;95.90;;;;;;5052308;28;20507;-71
2021/08/12 02:58:43;;;;;;;21.90;13.40;;;15.90;96.00;;;;;;5051081;28;20773;-71
2021/08/12 03:01:11;;;;;;;27.35;14.13;;;15.90;95.80;;;;;;5034493;28;20411;-71
2021/08/12 03:03:40;;;;;;;21.67;14.55;;;16.00;95.60;;;;;;5052043;28;20873;-71
2021/08/12 03:06:08;;;;;;;23.55;15.68;;;16.00;95.90;;;;;;5050946;28;20408;-72
2021/08/12 03:08:37;;;;;;;21.63;14.23;;;15.90;95.80;;;;;;5051512;28;20402;-72
2021/08/12 03:11:03;;;;;;;23.17;15.65;;;15.90;96.10;;;;;;5053411;28;20738;-71
2021/08/12 03:13:29;;;;;;;22.10;15.97;;;15.90;96.30;;;;;;5052273;28;20408;-70
2021/08/12 03:15:55;;;;;;;27.47;15.90;;;16.00;97.20;;;;;;5050012;28;20489;-71
2021/08/12 03:18:20;;;;;;;24.02;15.50;;;16.10;96.40;;;;;;5021590;28;20411;-71
2021/08/12 03:20:46;;;;;;;24.75;16.45;;;16.00;96.20;;;;;;5042605;28;20832;-72
2021/08/12 03:23:13;;;;;;;22.70;14.90;;;16.00;96.30;;;;;;5051573;28;20413;-72
2021/08/12 03:25:39;;;;;;;24.80;16.60;;;16.10;96.40;;;;;;5052619;28;20392;-71
2021/08/12 03:28:04;;;;;;;34.47;16.55;;;16.00;96.10;;;;;;5049664;28;20398;-71
2021/08/12 03:30:30;;;;;;;21.73;16.48;;;16.00;96.70;;;;;;5051199;28;20408;-70
2021/08/12 03:32:56;;;;;;;22.73;15.50;;;16.00;96.20;;;;;;5051349;28;20401;-70
2021/08/12 03:35:21;;;;;;;21.60;15.80;;;16.00;96.30;;;;;;5050141;28;20897;-70
2021/08/12 03:37:47;;;;;;;24.63;15.90;;;16.00;96.90;;;;;;5050334;28;20534;-71
2021/08/12 03:40:12;;;;;;;20.40;15.60;;;16.00;97.50;;;;;;5050991;28;20409;-71
2021/08/12 03:42:38;;;;;;;19.48;15.43;;;16.00;97.30;;;;;;5051080;28;20467;-71
2021/08/12 03:45:05;;;;;;;22.83;15.98;;;16.10;97.20;;;;;;5052091;28;20844;-71
2021/08/12 03:47:31;;;;;;;21.75;15.65;;;16.10;95.70;;;;;;5049768;28;20809;-70
2021/08/12 03:49:57;;;;;;;23.20;16.20;;;16.10;96.30;;;;;;5051929;28;20378;-70
2021/08/12 03:52:22;;;;;;;22.40;16.37;;;16.00;96.20;;;;;;5049951;28;20412;-72
2021/08/12 03:54:48;;;;;;;20.33;16.67;;;16.10;97.60;;;;;;5051844;28;20392;-71
2021/08/12 03:57:13;;;;;;;24.83;17.83;;;16.10;96.50;;;;;;5049972;28;20416;-71
2021/08/12 03:59:39;;;;;;;21.00;16.53;;;16.00;96.50;;;;;;5049700;28;20409;-71
2021/08/12 04:02:05;;;;;;;22.60;17.30;;;16.00;97.00;;;;;;5050772;28;20405;-71
2021/08/12 04:04:31;;;;;;;23.88;17.63;;;16.00;97.10;;;;;;5049531;28;20397;-71
2021/08/12 04:06:56;;;;;;;27.73;17.48;;;16.00;97.70;;;;;;5047598;28;20501;-71
2021/08/12 04:09:22;;;;;;;23.70;16.97;;;16.00;97.00;;;;;;5051339;28;20425;-71
2021/08/12 04:11:47;;;;;;;26.90;17.17;;;16.10;97.10;;;;;;5056059;28;20388;-71
2021/08/12 04:14:13;;;;;;;27.43;17.07;;;16.10;96.10;;;;;;5049691;28;20484;-71
2021/08/12 04:16:38;;;;;;;28.17;17.95;;;16.20;94.20;;;;;;5050329;28;20387;-71
2021/08/12 04:19:04;;;;;;;24.20;16.55;;;16.10;93.90;;;;;;5051301;28;20394;-72
2021/08/12 04:21:30;;;;;;;27.90;18.05;;;16.20;93.50;;;;;;5050448;28;20413;-71
2021/08/12 04:23:56;;;;;;;121.30;79.60;;;16.30;92.50;;;;;;5050224;28;20458;-69
2021/08/12 04:26:27;;;;;;;64.35;41.13;;;16.30;92.90;;;;;;5050555;28;20478;-71
2021/08/12 04:28:53;;;;;;;29.33;21.05;;;16.30;93.20;;;;;;5042443;28;20401;-71
2021/08/12 04:31:18;;;;;;;45.70;31.98;;;16.20;94.20;;;;;;5032462;28;20416;-70
2021/08/12 04:33:44;;;;;;;42.65;28.55;;;16.20;95.20;;;;;;5050064;28;20470;-70
2021/08/12 04:36:09;;;;;;;34.72;23.35;;;16.20;95.80;;;;;;5051334;28;20415;-70
2021/08/12 04:38:35;;;;;;;27.92;18.63;;;16.20;95.80;;;;;;5048744;28;20397;-71
2021/08/12 04:41:01;;;;;;;29.30;20.60;;;16.30;96.30;;;;;;5050690;28;20389;-70
2021/08/12 04:43:27;;;;;;;27.45;19.40;;;16.30;96.10;;;;;;5049198;28;20401;-71
2021/08/12 04:45:52;;;;;;;28.63;18.85;;;16.30;96.40;;;;;;5051265;28;20382;-71
2021/08/12 04:48:18;;;;;;;27.67;18.13;;;16.40;96.30;;;;;;5049464;28;20429;-71
2021/08/12 04:50:43;;;;;;;29.30;19.93;;;16.40;96.50;;;;;;5051252;28;20421;-72
2021/08/12 04:53:09;;;;;;;26.42;19.08;;;16.40;96.00;;;;;;5049289;28;20431;-71
2021/08/12 04:55:34;;;;;;;30.15;20.88;;;16.40;95.90;;;;;;5050657;28;20390;-71
2021/08/12 04:58:00;;;;;;;25.05;18.50;;;16.40;96.10;;;;;;5048233;28;20467;-71
2021/08/12 05:00:26;;;;;;;31.23;19.92;;;16.50;96.00;;;;;;5047779;28;20409;-72
2021/08/12 05:02:52;;;;;;;27.13;19.20;;;16.40;95.90;;;;;;5048602;28;20413;-72
2021/08/12 05:05:18;;;;;;;24.00;19.30;;;16.40;96.40;;;;;;5050585;28;20381;-72
2021/08/12 05:07:43;;;;;;;29.17;19.20;;;16.50;96.70;;;;;;5049127;28;20405;-71
2021/08/12 05:10:09;;;;;;;30.80;21.15;;;16.60;95.20;;;;;;5050389;28;20886;-71
2021/08/12 05:12:35;;;;;;;29.80;21.70;;;16.60;95.10;;;;;;5051362;28;20405;-71
2021/08/12 05:15:01;;;;;;;35.90;25.08;;;16.60;93.80;;;;;;5050195;28;20381;-71
2021/08/12 05:17:26;;;;;;;27.70;21.60;;;16.70;93.30;;;;;;5049149;28;20406;-71
2021/08/12 05:19:52;;;;;;;31.35;20.70;;;16.70;92.90;;;;;;5049684;28;20474;-71
2021/08/12 05:22:22;;;;;;;28.10;20.45;;;16.80;91.90;;;;;;5048408;28;20409;-71
2021/08/12 05:24:48;;;;;;;27.50;19.20;;;16.90;90.20;;;;;;5049265;28;20408;-71
2021/08/12 05:27:13;;;;;;;28.98;19.65;;;16.90;88.40;;;;;;5048828;28;20401;-71
2021/08/12 05:29:39;;;;;;;29.07;19.40;;;17.00;87.00;;;;;;5048978;28;20881;-71
2021/08/12 05:32:05;;;;;;;26.27;18.90;;;17.10;86.50;;;;;;5048422;28;20762;-71
2021/08/12 05:34:30;;;;;;;26.42;18.80;;;17.20;85.20;;;;;;5049419;28;20909;-72
2021/08/12 05:36:56;;;;;;;31.73;20.80;;;17.30;82.90;;;;;;5048393;28;20397;-71
2021/08/12 05:39:22;;;;;;;28.97;18.43;;;17.30;80.90;;;;;;5050277;28;20491;-70
2021/08/12 05:41:47;;;;;;;22.60;17.00;;;17.50;77.30;;;;;;5049843;28;20412;-71
2021/08/12 05:44:13;;;;;;;23.02;17.13;;;17.40;75.80;;;;;;5049894;28;20393;-72
2021/08/12 05:46:38;;;;;;;23.80;16.33;;;17.40;75.80;;;;;;5050012;28;20374;-71
2021/08/12 05:49:04;;;;;;;22.20;15.40;;;17.40;75.20;;;;;;5049896;28;20378;-72
2021/08/12 05:51:34;;;;;;;23.97;16.90;;;17.40;75.30;;;;;;5049991;28;20450;-72
2021/08/12 05:54:00;;;;;;;24.95;17.73;;;17.40;75.40;;;;;;5049450;28;20444;-75
2021/08/12 05:56:25;;;;;;;23.97;16.30;;;17.30;75.10;;;;;;5049369;28;20433;-74
2021/08/12 05:58:51;;;;;;;22.77;15.80;;;17.40;74.90;;;;;;5049364;28;20428;-73
2021/08/12 06:01:16;;;;;;;20.30;15.55;;;17.40;75.00;;;;;;5050042;28;20397;-74
2021/08/12 06:03:42;;;;;;;22.50;15.40;;;17.60;74.90;;;;;;5050099;28;20489;-72
2021/08/12 06:06:08;;;;;;;24.20;15.63;;;17.70;72.70;;;;;;5049350;28;20448;-73
2021/08/12 06:08:34;;;;;;;23.20;14.65;;;17.80;71.60;;;;;;5048569;28;20389;-73
2021/08/12 06:11:00;;;;;;;23.73;15.73;;;17.90;69.80;;;;;;5050681;28;20405;-73
2021/08/12 06:13:25;;;;;;;21.40;15.55;;;18.10;67.90;;;;;;5054929;28;20401;-72
2021/08/12 06:15:51;;;;;;;20.20;15.20;;;18.10;66.10;;;;;;5053413;28;20897;-71
2021/08/12 06:18:16;;;;;;;19.80;15.13;;;18.30;65.80;;;;;;5053101;28;20381;-70
2021/08/12 06:20:43;;;;;;;24.60;15.35;;;18.40;64.80;;;;;;5052122;28;20908;-73
2021/08/12 06:23:10;;;;;;;20.85;15.68;;;18.50;63.80;;;;;;5053544;28;20404;-72
2021/08/12 06:25:39;;;;;;;21.93;15.50;;;18.50;62.20;;;;;;5053241;28;20386;-71
2021/08/12 06:28:06;;;;;;;21.90;15.32;;;18.60;61.80;;;;;;5051515;28;20401;-70
2021/08/12 06:30:32;;;;;;;25.58;16.60;;;18.80;60.20;;;;;;5052752;28;20828;-71
2021/08/12 06:32:58;;;;;;;19.95;14.90;;;19.00;58.90;;;;;;5053167;28;20489;-71
2021/08/12 06:35:23;;;;;;;22.45;16.65;;;19.20;57.20;;;;;;5052553;28;20508;-71
2021/08/12 06:37:51;;;;;;;21.80;15.43;;;19.30;55.50;;;;;;5052589;28;20896;-71
2021/08/12 06:40:19;;;;;;;25.00;17.15;;;19.50;55.00;;;;;;5052906;28;20484;-71
2021/08/12 06:42:45;;;;;;;25.25;16.88;;;19.70;53.40;;;;;;5052743;28;20409;-69
2021/08/12 06:45:12;;;;;;;21.90;15.15;;;19.80;52.90;;;;;;5052193;28;20447;-70
2021/08/12 06:47:38;;;;;;;22.65;16.00;;;19.90;52.20;;;;;;5052074;28;20400;-71
2021/08/12 06:50:04;;;;;;;21.27;14.40;;;19.90;52.00;;;;;;5052090;28;20482;-70
2021/08/12 06:52:30;;;;;;;21.70;15.10;;;20.00;51.80;;;;;;5051818;28;20389;-70
2021/08/12 06:54:56;;;;;;;19.48;14.18;;;20.10;50.60;;;;;;5052664;28;20959;-70
2021/08/12 06:57:21;;;;;;;28.70;16.47;;;20.10;50.10;;;;;;5033956;28;20491;-70
2021/08/12 06:59:47;;;;;;;20.67;16.35;;;20.10;49.80;;;;;;5052543;28;20397;-71
2021/08/12 07:02:13;;;;;;;22.90;16.80;;;19.90;50.40;;;;;;5052297;28;20497;-71
2021/08/12 07:04:38;;;;;;;22.35;15.95;;;19.90;50.70;;;;;;5052433;28;20381;-71
2021/08/12 07:07:04;;;;;;;24.10;17.00;;;19.90;51.70;;;;;;5052120;28;20428;-71
2021/08/12 07:09:30;;;;;;;24.25;17.00;;;19.90;51.30;;;;;;5052190;28;20824;-71
2021/08/12 07:11:57;;;;;;;23.00;16.60;;;19.80;51.50;;;;;;5060261;28;20483;-71
2021/08/12 07:14:23;;;;;;;25.05;17.30;;;19.80;51.20;;;;;;5046166;28;20472;-71
2021/08/12 07:16:51;;;;;;;25.20;16.90;;;19.80;52.20;;;;;;5051943;28;20501;-71
2021/08/12 07:19:20;;;;;;;26.75;17.75;;;19.70;52.40;;;;;;5050682;28;20405;-72
2021/08/12 07:21:46;;;;;;;24.20;16.73;;;19.80;52.60;;;;;;5051790;28;20413;-71
2021/08/12 07:24:11;;;;;;;21.85;15.93;;;19.70;53.40;;;;;;5052302;28;20385;-70
2021/08/12 07:26:37;;;;;;;22.93;16.90;;;19.80;53.20;;;;;;5051774;28;20750;-73
2021/08/12 07:29:03;;;;;;;23.37;16.40;;;19.90;52.90;;;;;;5051674;28;20504;-70
2021/08/12 07:31:29;;;;;;;26.50;18.00;;;20.10;51.40;;;;;;5052561;28;20515;-71
2021/08/12 07:33:55;;;;;;;21.92;15.85;;;20.30;50.40;;;;;;5051429;28;20389;-71
2021/08/12 07:36:21;;;;;;;26.70;18.13;;;20.50;50.60;;;;;;5051738;28;20913;-71
2021/08/12 07:38:46;;;;;;;28.67;20.05;;;20.70;48.60;;;;;;5033022;28;20398;-72
2021/08/12 07:41:13;;;;;;;27.95;19.65;;;20.80;46.20;;;;;;5051211;28;20410;-70
2021/08/12 07:43:40;;;;;;;23.80;19.27;;;20.80;45.40;;;;;;5033897;28;20396;-70
2021/08/12 07:46:05;;;;;;;28.55;20.20;;;20.90;46.20;;;;;;5051465;28;20674;-70
2021/08/12 07:48:31;;;;;;;27.75;19.30;;;21.00;45.20;;;;;;5050523;28;20844;-71
2021/08/12 07:50:56;;;;;;;27.95;19.30;;;21.10;44.40;;;;;;5051462;28;20372;-71
2021/08/12 07:53:22;;;;;;;23.77;17.57;;;21.40;43.40;;;;;;5050884;28;20433;-71
2021/08/12 07:55:48;;;;;;;24.87;17.90;;;21.60;42.70;;;;;;5050987;28;20416;-71
2021/08/12 07:58:13;;;;;;;22.92;18.27;;;22.00;40.00;;;;;;5033003;28;20466;-71
2021/08/12 08:00:39;;;;;;;29.93;18.53;;;22.20;39.80;;;;;;5051087;28;20394;-71
2021/08/12 08:03:05;;;;;;;27.30;18.80;;;22.30;38.00;;;;;;5051630;28;20409;-71
2021/08/12 08:05:30;;;;;;;25.73;17.73;;;22.50;37.80;;;;;;5051506;28;20408;-74
2021/08/12 08:07:57;;;;;;;24.65;17.88;;;22.70;37.80;;;;;;5031773;28;20789;-71
2021/08/12 08:10:24;;;;;;;25.10;18.25;;;22.60;37.20;;;;;;5051507;28;20400;-71
2021/08/12 08:12:51;;;;;;;23.70;18.02;;;22.50;38.00;;;;;;5066882;28;20502;-70
2021/08/12 08:15:18;;;;;;;29.60;18.35;;;22.50;37.50;;;;;;5071491;28;20415;-70
2021/08/12 08:17:44;;;;;;;29.88;17.90;;;22.30;37.80;;;;;;5051730;28;20731;-70
2021/08/12 08:20:11;;;;;;;30.87;19.10;;;22.00;38.20;;;;;;5051138;28;20397;-70
2021/08/12 08:22:38;;;;;;;28.25;19.00;;;21.70;39.30;;;;;;5041241;28;20467;-70
2021/08/12 08:25:05;;;;;;;23.35;17.95;;;22.00;38.40;;;;;;5050599;28;20386;-70
2021/08/12 08:27:31;;;;;;;28.63;19.10;;;22.10;37.70;;;;;;5050766;28;20444;-71
2021/08/12 08:29:56;;;;;;;26.42;17.70;;;21.80;39.20;;;;;;5033092;28;20390;-70
2021/08/12 08:32:22;;;;;;;28.77;18.77;;;21.60;40.40;;;;;;5051453;28;20424;-70
2021/08/12 08:34:48;;;;;;;27.60;18.80;;;21.50;41.40;;;;;;5051074;28;20962;-70
2021/08/12 08:37:15;;;;;;;26.47;18.70;;;21.40;41.90;;;;;;5051438;28;20391;-70
2021/08/12 08:39:40;;;;;;;26.60;17.65;;;21.70;40.50;;;;;;5051855;28;20393;-70
2021/08/12 08:42:07;;;;;;;31.58;18.75;;;21.90;39.50;;;;;;5050994;28;20412;-73
2021/08/12 08:44:35;;;;;;;26.03;18.13;;;22.00;38.40;;;;;;5050052;28;20393;-71
2021/08/12 08:47:01;;;;;;;26.98;18.80;;;22.00;38.80;;;;;;5050760;28;20381;-69
2021/08/12 08:49:29;;;;;;;28.35;18.63;;;22.20;37.50;;;;;;5050550;28;20389;-71
2021/08/12 08:51:56;;;;;;;26.65;18.20;;;22.50;36.60;;;;;;5050501;28;20416;-71
2021/08/12 08:54:23;;;;;;;27.48;18.10;;;22.90;35.50;;;;;;5049955;28;20901;-70
2021/08/12 08:56:49;;;;;;;25.42;17.38;;;22.90;35.40;;;;;;5051040;28;20464;-70
2021/08/12 08:59:15;;;;;;;27.45;18.10;;;23.00;35.10;;;;;;5050555;28;20527;-70
2021/08/12 09:01:40;;;;;;;24.27;18.33;;;23.00;35.00;;;;;;5050869;28;20401;-70
2021/08/12 09:04:06;;;;;;;26.20;17.50;;;23.00;34.50;;;;;;5050728;28;20502;-71
2021/08/12 09:06:33;;;;;;;25.45;17.13;;;23.00;34.30;;;;;;5050108;28;20397;-71
2021/08/12 09:08:59;;;;;;;26.63;17.10;;;23.00;34.30;;;;;;5050199;28;20413;-70
2021/08/12 09:11:26;;;;;;;31.40;18.75;;;23.30;34.50;;;;;;5035384;28;20399;-70
2021/08/12 09:13:53;;;;;;;28.23;18.60;;;23.30;33.50;;;;;;5040730;28;20476;-69
2021/08/12 09:16:35;;;;;;;25.97;16.50;;;23.30;32.60;;;;;;5048423;28;20393;-69
2021/08/12 09:19:20;;;;;;;24.17;17.17;;;23.50;31.80;;;;;;5047386;28;20394;-70
2021/08/12 09:21:57;;;;;;;27.65;17.30;;;23.30;32.40;;;;;;5049663;28;20480;-70
2021/08/12 09:24:23;;;;;;;28.92;17.50;;;23.30;33.20;;;;;;5049945;28;20746;-70
2021/08/12 09:26:50;;;;;;;27.52;16.98;;;23.50;32.40;;;;;;5050343;28;20390;-70
2021/08/12 09:29:31;;;;;;;23.30;15.15;;;23.60;32.00;;;;;;5049793;28;20720;-70
2021/08/12 09:32:02;;;;;;;26.45;16.88;;;23.80;32.00;;;;;;5050296;28;20377;-70
2021/08/12 09:34:45;;;;;;;25.83;17.48;;;23.90;31.00;;;;;;5050066;28;20495;-70
2021/08/12 09:37:12;;;;;;;32.43;21.37;;;24.10;30.10;;;;;;5032032;28;20396;-70
2021/08/12 09:39:39;;;;;;;25.27;17.00;;;24.10;30.10;;;;;;5049425;28;20443;-71
2021/08/12 09:42:06;;;;;;;26.48;15.80;;;24.10;29.10;;;;;;5050298;28;20413;-70
2021/08/12 09:44:51;;;;;;;23.73;14.50;;;24.10;29.60;;;;;;5050270;28;20416;-70
2021/08/12 09:47:19;;;;;;;21.83;12.77;;;24.20;28.20;;;;;;5054198;28;20389;-70
2021/08/12 09:49:48;;;;;;;27.43;15.47;;;24.20;27.70;;;;;;5054069;28;20385;-70
2021/08/12 09:52:17;;;;;;;19.67;13.07;;;24.40;27.10;;;;;;5054576;28;20381;-71
2021/08/12 09:54:44;;;;;;;20.67;12.37;;;24.60;27.30;;;;;;5035786;28;20401;-71
2021/08/12 09:57:14;;;;;;;18.90;11.98;;;24.70;26.80;;;;;;5053752;28;20464;-71
2021/08/12 09:59:47;;;;;;;19.70;11.93;;;24.70;25.10;;;;;;5053417;28;20400;-71
2021/08/12 10:02:13;;;;;;;16.55;11.32;;;24.70;24.80;;;;;;5053801;28;20538;-70
2021/08/12 10:04:38;;;;;;;13.05;8.50;;;24.80;24.00;;;;;;5053508;28;20393;-71
2021/08/12 10:07:04;;;;;;;8.20;4.97;;;25.00;22.60;;;;;;5053054;28;20408;-71
2021/08/12 10:09:40;;;;;;;5.80;4.88;;;25.00;15.10;;;;;;5053581;28;20428;-71
2021/08/12 10:12:06;;;;;;;11.60;6.05;;;25.00;16.60;;;;;;5063085;28;20403;-71
2021/08/12 10:14:32;;;;;;;11.18;7.70;;;24.90;17.40;;;;;;5030670;28;20461;-70
2021/08/12 10:16:58;;;;;;;11.43;7.40;;;24.80;19.20;;;;;;5053402;28;20396;-70
2021/08/12 10:19:23;;;;;;;12.03;8.40;;;25.00;19.60;;;;;;5053244;28;20393;-72
2021/08/12 10:21:49;;;;;;;14.13;8.82;;;25.00;19.30;;;;;;5053302;28;20393;-71
2021/08/12 10:24:18;;;;;;;15.43;9.27;;;25.20;20.70;;;;;;5035179;28;20443;-70
2021/08/12 10:26:45;;;;;;;14.68;9.40;;;25.30;20.90;;;;;;5034748;28;20412;-72
2021/08/12 10:29:13;;;;;;;14.65;8.93;;;25.20;18.40;;;;;;5034789;28;20397;-73
2021/08/12 10:31:44;;;;;;;11.70;9.20;;;25.20;19.20;;;;;;5053545;28;20468;-70
2021/08/12 10:34:10;;;;;;;12.98;8.80;;;25.30;18.70;;;;;;5053137;28;20917;-70
2021/08/12 10:36:37;;;;;;;13.95;9.32;;;25.50;17.70;;;;;;5053160;28;20402;-71
2021/08/12 10:39:04;;;;;;;15.38;9.00;;;25.60;18.30;;;;;;5052620;28;20457;-71
2021/08/12 10:41:31;;;;;;;13.90;8.20;;;25.80;18.30;;;;;;5053037;28;20421;-71
2021/08/12 10:43:58;;;;;;;12.43;7.75;;;25.90;17.20;;;;;;5053164;28;20428;-70
2021/08/12 10:46:43;;;;;;;9.43;6.30;;;26.10;17.00;;;;;;5052841;28;20382;-71
2021/08/12 10:49:28;;;;;;;9.30;6.25;;;26.40;15.70;;;;;;5052417;28;20401;-69
2021/08/12 10:52:10;;;;;;;7.57;6.25;;;26.50;13.70;;;;;;5052868;28;20403;-71
2021/08/12 10:54:37;;;;;;;8.93;6.50;;;26.50;14.30;;;;;;5052524;28;20403;-69
2021/08/12 10:57:12;;;;;;;10.88;7.75;;;26.70;14.20;;;;;;5052150;28;20823;-70
2021/08/12 10:59:41;;;;;;;13.88;7.50;;;26.70;14.00;;;;;;5052784;28;20400;-74
2021/08/12 11:02:30;;;;;;;13.63;6.40;;;26.90;13.70;;;;;;5052508;28;20409;-71
2021/08/12 11:04:58;;;;;;;11.10;7.30;;;27.10;13.70;;;;;;5052702;28;20405;-70
2021/08/12 11:07:38;;;;;;;7.65;6.35;;;27.10;13.00;;;;;;5052192;28;20476;-70
2021/08/12 11:10:12;;;;;;;8.65;6.05;;;27.10;13.70;;;;;;5052326;28;20404;-71
2021/08/12 11:13:07;;;;;;;6.10;5.40;;;27.20;12.70;;;;;;5052294;28;20397;-71
2021/08/12 11:15:38;;;;;;;8.20;6.00;;;27.40;12.10;;;;;;5013917;28;20397;-70
2021/08/12 11:18:08;;;;;;;6.50;5.50;;;27.60;11.50;;;;;;5052411;28;20400;-70
2021/08/12 11:20:37;;;;;;;6.28;5.13;;;27.70;10.40;;;;;;5044377;28;20398;-70
2021/08/12 11:23:17;;;;;;;8.05;5.20;;;27.70;9.20;;;;;;5011628;28;20412;-73
2021/08/12 11:26:00;;;;;;;6.25;5.00;;;27.70;10.00;;;;;;5011978;28;20415;-75
2021/08/12 11:28:41;;;;;;;9.83;5.50;;;27.70;9.80;;;;;;5013254;28;20399;-72
2021/08/12 11:31:28;;;;;;;8.43;5.00;;;27.60;9.30;;;;;;5012545;28;20446;-73
2021/08/12 11:33:58;;;;;;;13.05;5.65;;;27.70;9.70;;;;;;5012660;28;20392;-72
2021/08/12 11:36:25;;;;;;;8.65;5.30;;;28.00;10.50;;;;;;5012629;28;20431;-72
2021/08/12 11:39:07;;;;;;;9.38;5.70;;;27.90;10.50;;;;;;5012834;28;20443;-72
2021/08/12 11:41:41;;;;;;;7.88;5.80;;;27.90;10.50;;;;;;5031079;28;20410;-72
2021/08/12 11:44:15;;;;;;;10.02;5.70;;;27.70;10.60;;;;;;5032192;28;20438;-73
2021/08/12 11:46:41;;;;;;;5.47;4.85;;;27.80;10.50;;;;;;5031595;28;20391;-73
2021/08/12 11:49:12;;;;;;;9.18;5.60;;;27.80;10.40;;;;;;5031962;28;20379;-72
2021/08/12 11:51:38;;;;;;;6.93;4.97;;;27.90;8.90;;;;;;5032532;28;20558;-71
2021/08/12 11:54:03;;;;;;;7.22;5.60;;;27.90;7.60;;;;;;5032275;28;20388;-72
2021/08/12 11:56:33;;;;;;;7.95;6.05;;;27.70;9.10;;;;;;5032032;28;20451;-72
2021/08/12 11:59:00;;;;;;;7.97;5.95;;;27.60;10.10;;;;;;5032239;28;20387;-71
2021/08/12 12:01:30;;;;;;;12.82;6.50;;;27.90;10.50;;;;;;5031922;28;20386;-70
2021/08/12 12:03:57;;;;;;;12.32;6.50;;;27.90;9.80;;;;;;5031327;28;20393;-72
2021/08/12 12:06:40;;;;;;;14.13;6.45;;;27.90;10.10;;;;;;5031741;28;20391;-72
2021/08/12 12:09:32;;;;;;;9.03;5.60;;;27.90;11.00;;;;;;5029785;28;20979;-72
2021/08/12 12:12:03;;;;;;;9.85;6.25;;;28.20;11.00;;;;;;5031175;28;20418;-72
2021/08/12 12:14:31;;;;;;;13.32;6.30;;;28.10;10.70;;;;;;5031614;28;20391;-72
2021/08/12 12:17:17;;;;;;;11.85;6.40;;;28.10;9.60;;;;;;5031392;28;20393;-71
2021/08/12 12:20:03;;;;;;;12.40;6.35;;;28.10;10.80;;;;;;5031171;28;20394;-72
2021/08/12 12:22:33;;;;;;;10.13;6.28;;;28.10;10.20;;;;;;5031158;28;20403;-71
2021/08/12 12:25:00;;;;;;;8.52;5.70;;;28.10;9.10;;;;;;5031367;28;20418;-71
2021/08/12 12:27:27;;;;;;;8.40;5.70;;;28.10;8.20;;;;;;5030942;28;20383;-70
2021/08/12 12:30:01;;;;;;;13.30;7.50;;;28.30;8.50;;;;;;5030727;28;20829;-70
2021/08/12 12:32:27;;;;;;;8.85;5.70;;;28.50;9.40;;;;;;5031589;28;20387;-71
2021/08/12 12:34:54;;;;;;;11.48;5.55;;;28.50;8.20;;;;;;5031109;28;20694;-71
2021/08/12 12:37:22;;;;;;;9.98;5.70;;;28.50;7.40;;;;;;5031133;28;20509;-70